createdAt,value
2022-09-10T00:00:29.251Z,0.00
2022-09-10T00:01:29.281Z,0.00
2022-09-10T00:02:29.272Z,0.00
2022-09-10T00:03:29.210Z,0.00
2022-09-10T00:04:29.222Z,0.00
2022-09-10T00:05:29.191Z,0.00
2022-09-10T00:06:29.192Z,0.00
2022-09-10T00:07:29.204Z,0.00
2022-09-10T00:08:29.176Z,0.00
2022-09-10T00:09:29.149Z,0.00
2022-09-10T00:10:29.140Z,0.00
2022-09-10T00:11:29.120Z,0.00
2022-09-10T00:12:29.111Z,0.00
2022-09-10T00:13:29.136Z,0.00
2022-09-10T00:14:29.101Z,0.00
2022-09-10T00:15:29.090Z,0.00
2022-09-10T00:16:29.145Z,0.00
2022-09-10T00:17:29.046Z,0.00
2022-09-10T00:18:29.046Z,0.00
2022-09-10T00:19:29.082Z,0.00
2022-09-10T00:20:29.028Z,0.00
2022-09-10T00:21:29.013Z,0.00
2022-09-10T00:22:28.999Z,0.00
2022-09-10T00:23:29.000Z,0.00
2022-09-10T00:24:28.984Z,0.00
2022-09-10T00:25:28.978Z,0.00
2022-09-10T00:26:28.952Z,0.00
2022-09-10T00:27:28.943Z,0.00
2022-09-10T00:28:28.953Z,0.00
2022-09-10T00:29:28.940Z,0.00
2022-09-10T00:30:28.908Z,0.00
2022-09-10T00:31:28.978Z,0.00
2022-09-10T00:32:28.888Z,0.00
2022-09-10T00:33:28.869Z,0.00
2022-09-10T00:34:28.873Z,0.00
2022-09-10T00:35:28.855Z,0.00
2022-09-10T00:36:28.860Z,0.00
2022-09-10T00:37:28.828Z,0.00
2022-09-10T00:38:28.821Z,0.00
2022-09-10T00:39:28.827Z,0.00
2022-09-10T00:40:28.797Z,0.00
2022-09-10T00:41:28.806Z,0.00
2022-09-10T00:42:28.805Z,0.00
2022-09-10T00:43:28.769Z,0.00
2022-09-10T00:44:30.633Z,0.00
2022-09-10T00:45:28.808Z,0.00
2022-09-10T00:46:29.775Z,0.00
2022-09-10T00:47:28.739Z,0.00
2022-09-10T00:48:28.719Z,0.00
2022-09-10T00:49:28.691Z,0.00
2022-09-10T00:50:28.721Z,0.00
2022-09-10T00:51:28.668Z,0.00
2022-09-10T00:52:28.655Z,0.00
2022-09-10T00:53:28.670Z,0.00
2022-09-10T00:54:28.655Z,0.00
2022-09-10T00:55:28.644Z,0.00
2022-09-10T00:56:28.614Z,0.00
2022-09-10T00:57:28.595Z,0.00
2022-09-10T00:58:28.622Z,0.00
2022-09-10T00:59:28.593Z,0.00
2022-09-10T01:00:28.576Z,0.00
2022-09-10T01:01:28.550Z,0.00
2022-09-10T01:02:28.550Z,0.00
2022-09-10T01:03:28.534Z,0.00
2022-09-10T01:04:28.568Z,0.00
2022-09-10T01:05:28.526Z,0.00
2022-09-10T01:06:28.512Z,0.00
2022-09-10T01:07:28.480Z,0.00
2022-09-10T01:08:28.482Z,0.00
2022-09-10T01:09:28.465Z,0.00
2022-09-10T01:10:28.502Z,0.00
2022-09-10T01:11:28.459Z,0.00
2022-09-10T01:12:29.164Z,0.00
2022-09-10T01:13:28.424Z,0.00
2022-09-10T01:14:28.412Z,0.00
2022-09-10T01:15:28.399Z,0.00
2022-09-10T01:16:28.438Z,0.00
2022-09-10T01:17:28.388Z,0.00
2022-09-10T01:18:28.371Z,0.00
2022-09-10T01:19:28.360Z,0.00
2022-09-10T01:20:28.372Z,0.00
2022-09-10T01:21:28.332Z,0.00
2022-09-10T01:22:28.314Z,0.00
2022-09-10T01:23:28.312Z,0.00
2022-09-10T01:24:28.301Z,0.00
2022-09-10T01:25:28.284Z,0.00
2022-09-10T01:26:28.316Z,0.00
2022-09-10T01:27:28.286Z,0.00
2022-09-10T01:28:28.254Z,0.00
2022-09-10T01:29:28.246Z,0.00
2022-09-10T01:30:28.230Z,0.00
2022-09-10T01:31:28.254Z,0.00
2022-09-10T01:32:28.243Z,0.00
2022-09-10T01:33:28.201Z,0.00
2022-09-10T01:34:28.183Z,0.00
2022-09-10T01:35:28.196Z,0.00
2022-09-10T01:36:28.170Z,0.00
2022-09-10T01:37:28.181Z,0.00
2022-09-10T01:38:28.163Z,0.00
2022-09-10T01:39:28.132Z,0.00
2022-09-10T01:40:28.165Z,0.00
2022-09-10T01:41:28.103Z,0.00
2022-09-10T01:42:28.095Z,0.00
2022-09-10T01:43:28.126Z,0.00
2022-09-10T01:44:28.095Z,0.00
2022-09-10T01:45:28.102Z,0.00
2022-09-10T01:46:28.048Z,0.00
2022-09-10T01:47:28.046Z,0.00
2022-09-10T01:48:28.034Z,0.00
2022-09-10T01:49:28.035Z,0.00
2022-09-10T01:50:28.002Z,0.00
2022-09-10T01:51:28.009Z,0.00
2022-09-10T01:52:27.980Z,0.00
2022-09-10T01:53:27.979Z,0.00
2022-09-10T01:54:27.953Z,0.00
2022-09-10T01:55:27.948Z,0.00
2022-09-10T01:56:27.934Z,0.00
2022-09-10T01:57:27.939Z,0.00
2022-09-10T01:58:27.939Z,0.00
2022-09-10T01:59:27.927Z,0.00
2022-09-10T02:00:27.892Z,0.00
2022-09-10T02:01:27.886Z,0.00
2022-09-10T02:02:27.874Z,0.00
2022-09-10T02:03:27.876Z,0.00
2022-09-10T02:04:27.847Z,0.00
2022-09-10T02:05:27.852Z,0.00
2022-09-10T02:06:27.817Z,0.00
2022-09-10T02:07:27.815Z,0.00
2022-09-10T02:08:27.814Z,0.00
2022-09-10T02:09:27.784Z,0.00
2022-09-10T02:10:27.800Z,0.00
2022-09-10T02:11:27.775Z,0.00
2022-09-10T02:12:27.765Z,0.00
2022-09-10T02:13:27.776Z,0.00
2022-09-10T02:14:27.729Z,0.00
2022-09-10T02:15:27.748Z,0.00
2022-09-10T02:16:27.800Z,0.00
2022-09-10T02:17:27.747Z,0.00
2022-09-10T02:18:27.696Z,0.00
2022-09-10T02:19:27.710Z,0.00
2022-09-10T02:20:27.710Z,0.00
2022-09-10T02:21:27.656Z,0.00
2022-09-10T02:22:27.650Z,0.00
2022-09-10T02:23:27.632Z,0.00
2022-09-10T02:24:27.626Z,0.00
2022-09-10T02:25:27.631Z,0.00
2022-09-10T02:26:27.623Z,0.00
2022-09-10T02:27:27.609Z,0.00
2022-09-10T02:28:27.580Z,0.00
2022-09-10T02:29:27.565Z,0.00
2022-09-10T02:30:27.564Z,0.00
2022-09-10T02:31:27.614Z,0.00
2022-09-10T02:32:27.525Z,0.00
2022-09-10T02:33:27.516Z,0.00
2022-09-10T02:34:27.519Z,0.00
2022-09-10T02:35:27.492Z,0.00
2022-09-10T02:36:27.489Z,0.00
2022-09-10T02:37:27.502Z,0.00
2022-09-10T02:38:27.462Z,0.00
2022-09-10T02:39:27.454Z,0.00
2022-09-10T02:40:27.446Z,0.00
2022-09-10T02:41:27.429Z,0.00
2022-09-10T02:42:27.428Z,0.00
2022-09-10T02:43:27.445Z,0.00
2022-09-10T02:44:27.400Z,0.00
2022-09-10T02:45:27.394Z,0.00
2022-09-10T02:46:27.385Z,0.00
2022-09-10T02:47:27.379Z,0.00
2022-09-10T02:48:27.355Z,0.00
2022-09-10T02:49:27.360Z,0.00
2022-09-10T02:50:27.355Z,0.00
2022-09-10T02:51:27.334Z,0.00
2022-09-10T02:52:27.329Z,0.00
2022-09-10T02:53:27.289Z,0.00
2022-09-10T02:54:27.308Z,0.00
2022-09-10T02:55:27.269Z,0.00
2022-09-10T02:56:27.269Z,0.00
2022-09-10T02:57:27.254Z,0.00
2022-09-10T02:58:27.245Z,0.00
2022-09-10T02:59:27.234Z,0.00
2022-09-10T03:00:27.260Z,0.00
2022-09-10T03:01:27.260Z,0.00
2022-09-10T03:02:27.224Z,0.00
2022-09-10T03:03:27.198Z,0.00
2022-09-10T03:04:27.174Z,0.00
2022-09-10T03:05:27.178Z,0.00
2022-09-10T03:06:27.166Z,0.00
2022-09-10T03:07:27.139Z,0.00
2022-09-10T03:08:27.133Z,0.00
2022-09-10T03:09:27.111Z,0.00
2022-09-10T03:10:27.105Z,0.00
2022-09-10T03:11:27.154Z,0.00
2022-09-10T03:12:27.083Z,0.00
2022-09-10T03:13:27.066Z,0.00
2022-09-10T03:14:27.083Z,0.00
2022-09-10T03:15:27.046Z,0.00
2022-09-10T03:16:27.100Z,0.00
2022-09-10T03:17:27.045Z,0.00
2022-09-10T03:18:27.029Z,0.00
2022-09-10T03:19:27.013Z,0.00
2022-09-10T03:20:26.999Z,0.00
2022-09-10T03:21:26.979Z,0.00
2022-09-10T03:22:26.968Z,0.00
2022-09-10T03:23:26.986Z,0.00
2022-09-10T03:24:26.958Z,0.00
2022-09-10T03:25:26.935Z,0.00
2022-09-10T03:26:26.953Z,0.00
2022-09-10T03:27:26.914Z,0.00
2022-09-10T03:28:26.910Z,0.00
2022-09-10T03:29:26.907Z,0.00
2022-09-10T03:30:26.882Z,0.00
2022-09-10T03:31:26.891Z,0.00
2022-09-10T03:32:26.874Z,0.00
2022-09-10T03:33:26.846Z,0.00
2022-09-10T03:34:26.861Z,0.00
2022-09-10T03:35:26.838Z,0.00
2022-09-10T03:36:26.811Z,0.00
2022-09-10T03:37:26.799Z,0.00
2022-09-10T03:38:26.792Z,0.00
2022-09-10T03:39:26.771Z,0.00
2022-09-10T03:40:26.813Z,0.00
2022-09-10T03:41:26.753Z,0.00
2022-09-10T03:42:26.748Z,0.00
2022-09-10T03:43:26.732Z,0.00
2022-09-10T03:44:26.727Z,0.00
2022-09-10T03:45:26.745Z,0.00
2022-09-10T03:46:26.708Z,0.00
2022-09-10T03:47:26.723Z,0.00
2022-09-10T03:48:26.676Z,0.00
2022-09-10T03:49:26.659Z,0.00
2022-09-10T03:50:26.660Z,0.00
2022-09-10T03:51:26.664Z,0.00
2022-09-10T03:52:26.623Z,0.00
2022-09-10T03:53:26.630Z,0.00
2022-09-10T03:54:26.634Z,0.00
2022-09-10T03:55:26.592Z,0.00
2022-09-10T03:56:26.610Z,0.00
2022-09-10T03:57:26.611Z,0.00
2022-09-10T03:58:26.597Z,0.00
2022-09-10T03:59:26.564Z,0.00
2022-09-10T04:00:26.540Z,0.00
2022-09-10T04:01:26.596Z,0.00
2022-09-10T04:02:26.559Z,0.00
2022-09-10T04:03:26.506Z,0.00
2022-09-10T04:04:26.515Z,0.00
2022-09-10T04:05:26.476Z,0.00
2022-09-10T04:06:26.489Z,0.00
2022-09-10T04:07:26.476Z,0.00
2022-09-10T04:08:26.446Z,0.00
2022-09-10T04:09:26.433Z,0.00
2022-09-10T04:10:26.445Z,0.00
2022-09-10T04:11:26.413Z,0.00
2022-09-10T04:12:26.420Z,0.00
2022-09-10T04:13:26.415Z,0.00
2022-09-10T04:14:26.377Z,0.00
2022-09-10T04:15:26.367Z,0.00
2022-09-10T04:16:26.431Z,0.00
2022-09-10T04:17:26.360Z,0.00
2022-09-10T04:18:26.367Z,0.00
2022-09-10T04:19:26.319Z,0.00
2022-09-10T04:20:26.308Z,0.00
2022-09-10T04:21:26.295Z,0.00
2022-09-10T04:22:26.293Z,0.00
2022-09-10T04:23:26.287Z,0.00
2022-09-10T04:24:26.287Z,0.00
2022-09-10T04:25:26.247Z,0.00
2022-09-10T04:26:26.238Z,0.00
2022-09-10T04:27:26.236Z,0.00
2022-09-10T04:28:26.217Z,0.00
2022-09-10T04:29:28.978Z,0.00
2022-09-10T04:30:26.224Z,0.00
2022-09-10T04:31:26.258Z,0.00
2022-09-10T04:32:26.180Z,0.00
2022-09-10T04:33:26.166Z,0.00
2022-09-10T04:34:26.147Z,0.00
2022-09-10T04:35:26.147Z,0.00
2022-09-10T04:36:26.142Z,0.00
2022-09-10T04:37:26.921Z,0.00
2022-09-10T04:38:26.099Z,0.00
2022-09-10T04:39:26.463Z,0.00
2022-09-10T04:40:26.928Z,0.00
2022-09-10T04:41:26.081Z,0.00
2022-09-10T04:42:26.051Z,0.00
2022-09-10T04:43:26.060Z,0.00
2022-09-10T04:44:26.028Z,0.00
2022-09-10T04:45:26.984Z,0.00
2022-09-10T04:46:26.013Z,0.00
2022-09-10T04:47:26.015Z,0.00
2022-09-10T04:48:25.991Z,0.00
2022-09-10T04:49:26.000Z,0.00
2022-09-10T04:50:25.966Z,0.00
2022-09-10T04:51:25.972Z,0.00
2022-09-10T04:52:25.944Z,0.00
2022-09-10T04:53:25.938Z,0.00
2022-09-10T04:54:25.920Z,0.00
2022-09-10T04:55:25.971Z,0.00
2022-09-10T04:56:25.906Z,0.00
2022-09-10T04:57:25.893Z,0.00
2022-09-10T04:58:25.895Z,0.00
2022-09-10T04:59:25.868Z,0.00
2022-09-10T05:00:25.886Z,0.00
2022-09-10T05:01:25.917Z,0.00
2022-09-10T05:02:25.859Z,0.00
2022-09-10T05:03:25.826Z,0.00
2022-09-10T05:04:25.816Z,0.00
2022-09-10T05:05:25.799Z,5.62
2022-09-10T05:06:25.805Z,5.62
2022-09-10T05:07:25.780Z,5.62
2022-09-10T05:08:25.759Z,5.62
2022-09-10T05:09:25.753Z,11.25
2022-09-10T05:10:25.751Z,11.25
2022-09-10T05:11:25.774Z,11.25
2022-09-10T05:12:26.428Z,11.25
2022-09-10T05:13:25.707Z,11.25
2022-09-10T05:14:25.690Z,11.25
2022-09-10T05:15:25.688Z,11.25
2022-09-10T05:16:25.712Z,11.25
2022-09-10T05:17:25.676Z,11.25
2022-09-10T05:18:25.670Z,16.88
2022-09-10T05:19:25.655Z,16.88
2022-09-10T05:20:25.633Z,16.88
2022-09-10T05:21:25.614Z,16.88
2022-09-10T05:22:28.556Z,16.88
2022-09-10T05:23:26.605Z,11.25
2022-09-10T05:24:25.596Z,11.25
2022-09-10T05:25:25.574Z,16.88
2022-09-10T05:26:25.562Z,16.88
2022-09-10T05:27:25.568Z,16.88
2022-09-10T05:28:25.564Z,16.88
2022-09-10T05:29:25.526Z,16.88
2022-09-10T05:30:25.520Z,16.88
2022-09-10T05:31:25.562Z,16.88
2022-09-10T05:32:25.500Z,16.88
2022-09-10T05:33:25.502Z,16.88
2022-09-10T05:34:25.504Z,22.50
2022-09-10T05:35:25.474Z,22.50
2022-09-10T05:36:25.451Z,28.12
2022-09-10T05:37:25.433Z,22.50
2022-09-10T05:38:25.451Z,22.50
2022-09-10T05:39:25.420Z,22.50
2022-09-10T05:40:25.420Z,22.50
2022-09-10T05:41:25.402Z,22.50
2022-09-10T05:42:25.385Z,28.12
2022-09-10T05:43:25.423Z,28.12
2022-09-10T05:44:25.350Z,33.75
2022-09-10T05:45:25.405Z,33.75
2022-09-10T05:46:25.367Z,33.75
2022-09-10T05:47:25.320Z,33.75
2022-09-10T05:48:25.317Z,33.75
2022-09-10T05:49:25.324Z,28.12
2022-09-10T05:50:25.312Z,28.12
2022-09-10T05:51:25.440Z,22.50
2022-09-10T05:52:25.378Z,28.12
2022-09-10T05:53:25.261Z,28.12
2022-09-10T05:54:25.247Z,28.12
2022-09-10T05:55:25.250Z,33.75
2022-09-10T05:56:25.275Z,33.75
2022-09-10T05:57:25.235Z,33.75
2022-09-10T05:58:25.211Z,39.38
2022-09-10T05:59:25.204Z,45.00
2022-09-10T06:00:25.208Z,50.62
2022-09-10T06:01:25.162Z,56.25
2022-09-10T06:02:25.251Z,56.25
2022-09-10T06:03:25.147Z,56.25
2022-09-10T06:04:25.135Z,61.88
2022-09-10T06:05:25.144Z,61.88
2022-09-10T06:06:25.118Z,50.62
2022-09-10T06:07:25.098Z,33.75
2022-09-10T06:08:25.108Z,22.50
2022-09-10T06:09:25.085Z,16.88
2022-09-10T06:10:25.071Z,16.88
2022-09-10T06:11:25.091Z,16.88
2022-09-10T06:12:25.057Z,16.88
2022-09-10T06:13:25.033Z,16.88
2022-09-10T06:14:25.091Z,11.25
2022-09-10T06:15:25.025Z,11.25
2022-09-10T06:16:25.097Z,16.88
2022-09-10T06:17:25.122Z,16.88
2022-09-10T06:18:24.972Z,22.50
2022-09-10T06:19:25.115Z,28.12
2022-09-10T06:20:25.019Z,28.12
2022-09-10T06:21:28.125Z,28.12
2022-09-10T06:22:24.936Z,33.75
2022-09-10T06:23:24.982Z,28.12
2022-09-10T06:24:24.925Z,28.12
2022-09-10T06:25:24.899Z,33.75
2022-09-10T06:26:24.902Z,39.38
2022-09-10T06:27:24.866Z,33.75
2022-09-10T06:28:24.867Z,33.75
2022-09-10T06:29:24.866Z,33.75
2022-09-10T06:30:24.940Z,33.75
2022-09-10T06:31:24.845Z,33.75
2022-09-10T06:32:24.807Z,39.38
2022-09-10T06:33:24.801Z,45.00
2022-09-10T06:34:24.811Z,61.88
2022-09-10T06:35:24.789Z,73.12
2022-09-10T06:36:24.786Z,78.75
2022-09-10T06:37:24.755Z,78.75
2022-09-10T06:38:24.765Z,78.75
2022-09-10T06:39:24.738Z,78.75
2022-09-10T06:40:25.817Z,61.88
2022-09-10T06:41:24.720Z,61.88
2022-09-10T06:42:24.708Z,67.50
2022-09-10T06:43:24.691Z,50.62
2022-09-10T06:44:24.722Z,50.62
2022-09-10T06:45:24.694Z,45.00
2022-09-10T06:47:01.674Z,45.00
2022-09-10T06:48:32.426Z,45.00
2022-09-10T06:48:38.634Z,39.38
2022-09-10T06:49:25.627Z,45.00
2022-09-10T06:50:24.648Z,39.38
2022-09-10T06:51:24.632Z,39.38
2022-09-10T06:52:24.590Z,39.38
2022-09-10T06:53:24.580Z,45.00
2022-09-10T06:54:24.571Z,45.00
2022-09-10T06:55:24.561Z,56.25
2022-09-10T06:56:24.577Z,61.88
2022-09-10T06:57:24.543Z,61.88
2022-09-10T06:58:24.548Z,61.88
2022-09-10T06:59:24.505Z,56.25
2022-09-10T07:00:24.548Z,56.25
2022-09-10T07:01:24.627Z,50.62
2022-09-10T07:02:24.518Z,50.62
2022-09-10T07:03:24.481Z,45.00
2022-09-10T07:04:24.470Z,50.62
2022-09-10T07:05:24.444Z,45.00
2022-09-10T07:06:24.445Z,45.00
2022-09-10T07:07:24.423Z,45.00
2022-09-10T07:08:24.442Z,45.00
2022-09-10T07:09:24.421Z,45.00
2022-09-10T07:10:24.391Z,45.00
2022-09-10T07:11:24.396Z,45.00
2022-09-10T07:12:24.368Z,45.00
2022-09-10T07:13:24.393Z,45.00
2022-09-10T07:14:24.361Z,39.38
2022-09-10T07:15:24.330Z,39.38
2022-09-10T07:16:24.326Z,45.00
2022-09-10T07:17:26.775Z,45.00
2022-09-10T07:18:25.327Z,45.00
2022-09-10T07:19:24.301Z,45.00
2022-09-10T07:20:24.279Z,45.00
2022-09-10T07:21:24.262Z,50.62
2022-09-10T07:22:24.254Z,50.62
2022-09-10T07:23:24.242Z,50.62
2022-09-10T07:24:24.272Z,50.62
2022-09-10T07:25:24.227Z,56.25
2022-09-10T07:26:24.223Z,56.25
2022-09-10T07:27:24.198Z,56.25
2022-09-10T07:28:24.192Z,61.88
2022-09-10T07:29:24.185Z,61.88
2022-09-10T07:30:24.179Z,67.50
2022-09-10T07:31:24.238Z,67.50
2022-09-10T07:32:24.140Z,73.12
2022-09-10T07:33:24.138Z,73.12
2022-09-10T07:34:24.132Z,73.12
2022-09-10T07:35:24.175Z,73.12
2022-09-10T07:36:24.112Z,73.12
2022-09-10T07:37:24.084Z,78.75
2022-09-10T07:38:24.077Z,78.75
2022-09-10T07:39:25.838Z,84.38
2022-09-10T07:40:24.056Z,84.38
2022-09-10T07:41:24.068Z,90.00
2022-09-10T07:42:24.024Z,90.00
2022-09-10T07:43:24.029Z,95.62
2022-09-10T07:44:24.033Z,95.62
2022-09-10T07:45:24.000Z,95.62
2022-09-10T07:46:24.021Z,101.25
2022-09-10T07:47:24.223Z,101.25
2022-09-10T07:48:23.971Z,101.25
2022-09-10T07:49:23.956Z,106.88
2022-09-10T07:50:23.941Z,106.88
2022-09-10T07:51:23.992Z,106.88
2022-09-10T07:52:24.001Z,106.88
2022-09-10T07:53:23.912Z,106.88
2022-09-10T07:54:24.013Z,106.88
2022-09-10T07:55:23.889Z,101.25
2022-09-10T07:56:23.882Z,101.25
2022-09-10T07:57:23.887Z,101.25
2022-09-10T07:58:23.859Z,101.25
2022-09-10T07:59:23.871Z,106.88
2022-09-10T08:00:23.834Z,106.88
2022-09-10T08:01:23.877Z,101.25
2022-09-10T08:02:23.832Z,106.88
2022-09-10T08:03:23.829Z,118.12
2022-09-10T08:04:23.811Z,129.38
2022-09-10T08:05:23.775Z,129.38
2022-09-10T08:06:23.779Z,135.00
2022-09-10T08:07:23.801Z,135.00
2022-09-10T08:08:23.746Z,135.00
2022-09-10T08:09:23.737Z,135.00
2022-09-10T08:10:23.715Z,140.62
2022-09-10T08:11:23.752Z,140.62
2022-09-10T08:12:23.719Z,135.00
2022-09-10T08:13:23.678Z,118.12
2022-09-10T08:14:23.671Z,135.00
2022-09-10T08:15:23.669Z,129.38
2022-09-10T08:16:23.649Z,129.38
2022-09-10T08:17:23.642Z,129.38
2022-09-10T08:18:23.645Z,157.50
2022-09-10T08:19:23.623Z,146.25
2022-09-10T08:20:23.645Z,118.12
2022-09-10T08:21:23.595Z,106.88
2022-09-10T08:22:23.583Z,101.25
2022-09-10T08:23:23.599Z,112.50
2022-09-10T08:24:23.587Z,118.12
2022-09-10T08:25:23.545Z,135.00
2022-09-10T08:26:23.567Z,140.62
2022-09-10T08:27:23.524Z,140.62
2022-09-10T08:28:25.569Z,135.00
2022-09-10T08:29:23.536Z,135.00
2022-09-10T08:30:23.529Z,129.38
2022-09-10T08:31:23.570Z,129.38
2022-09-10T08:32:23.478Z,135.00
2022-09-10T08:33:23.473Z,135.00
2022-09-10T08:34:23.456Z,135.00
2022-09-10T08:35:23.459Z,135.00
2022-09-10T08:36:23.459Z,140.62
2022-09-10T08:37:23.408Z,135.00
2022-09-10T08:38:23.412Z,135.00
2022-09-10T08:39:23.413Z,140.62
2022-09-10T08:40:23.413Z,140.62
2022-09-10T08:41:23.373Z,140.62
2022-09-10T08:42:23.393Z,135.00
2022-09-10T08:43:23.342Z,118.12
2022-09-10T08:44:23.335Z,135.00
2022-09-10T08:45:23.349Z,135.00
2022-09-10T08:46:23.324Z,151.88
2022-09-10T08:47:23.340Z,151.88
2022-09-10T08:48:23.295Z,157.50
2022-09-10T08:49:23.283Z,157.50
2022-09-10T08:50:23.268Z,146.25
2022-09-10T08:51:23.259Z,135.00
2022-09-10T08:52:23.245Z,129.38
2022-09-10T08:53:23.258Z,123.75
2022-09-10T08:54:23.230Z,118.12
2022-09-10T08:55:23.231Z,129.38
2022-09-10T08:56:23.219Z,123.75
2022-09-10T08:57:23.218Z,123.75
2022-09-10T08:58:23.215Z,118.12
2022-09-10T08:59:23.162Z,157.50
2022-09-10T09:00:23.168Z,180.00
2022-09-10T09:01:23.216Z,163.12
2022-09-10T09:02:47.248Z,151.88
2022-09-10T09:03:24.196Z,168.75
2022-09-10T09:04:23.142Z,191.25
2022-09-10T09:05:23.118Z,185.62
2022-09-10T09:06:23.093Z,174.38
2022-09-10T09:07:23.075Z,151.88
2022-09-10T09:08:23.104Z,168.75
2022-09-10T09:09:23.055Z,157.50
2022-09-10T09:10:23.049Z,157.50
2022-09-10T09:11:23.050Z,146.25
2022-09-10T09:12:23.041Z,140.62
2022-09-10T09:13:23.031Z,146.25
2022-09-10T09:14:23.032Z,123.75
2022-09-10T09:15:22.985Z,146.25
2022-09-10T09:16:22.988Z,151.88
2022-09-10T09:17:22.966Z,185.62
2022-09-10T09:18:22.951Z,180.00
2022-09-10T09:19:22.957Z,168.75
2022-09-10T09:20:22.963Z,135.00
2022-09-10T09:21:22.933Z,151.88
2022-09-10T09:22:22.913Z,135.00
2022-09-10T09:23:22.931Z,123.75
2022-09-10T09:24:22.914Z,118.12
2022-09-10T09:25:22.877Z,123.75
2022-09-10T09:26:22.982Z,129.38
2022-09-10T09:27:22.885Z,112.50
2022-09-10T09:28:22.845Z,90.00
2022-09-10T09:29:22.842Z,90.00
2022-09-10T09:30:22.820Z,84.38
2022-09-10T09:31:22.943Z,101.25
2022-09-10T09:32:22.825Z,123.75
2022-09-10T09:33:22.812Z,135.00
2022-09-10T09:34:22.781Z,151.88
2022-09-10T09:35:22.793Z,151.88
2022-09-10T09:36:22.766Z,163.12
2022-09-10T09:37:22.765Z,151.88
2022-09-10T09:38:22.740Z,140.62
2022-09-10T09:39:25.494Z,151.88
2022-09-10T09:40:22.717Z,151.88
2022-09-10T09:41:22.699Z,157.50
2022-09-10T09:42:22.716Z,157.50
2022-09-10T09:43:22.717Z,151.88
2022-09-10T09:44:22.673Z,151.88
2022-09-10T09:45:22.672Z,140.62
2022-09-10T09:46:23.707Z,140.62
2022-09-10T09:47:22.638Z,123.75
2022-09-10T09:48:22.668Z,118.12
2022-09-10T09:49:22.615Z,95.62
2022-09-10T09:50:22.607Z,90.00
2022-09-10T09:51:22.591Z,84.38
2022-09-10T09:52:22.583Z,73.12
2022-09-10T09:53:22.576Z,84.38
2022-09-10T09:55:23.553Z,135.00
2022-09-10T09:56:22.586Z,151.88
2022-09-10T09:57:22.725Z,140.62
2022-09-10T09:58:22.515Z,129.38
2022-09-10T09:59:22.521Z,151.88
2022-09-10T10:00:22.512Z,180.00
2022-09-10T10:01:22.532Z,180.00
2022-09-10T10:02:22.549Z,168.75
2022-09-10T10:03:22.484Z,168.75
2022-09-10T10:04:22.451Z,163.12
2022-09-10T10:05:22.452Z,157.50
2022-09-10T10:06:22.430Z,151.88
2022-09-10T10:07:22.430Z,146.25
2022-09-10T10:08:22.415Z,146.25
2022-09-10T10:09:22.411Z,151.88
2022-09-10T10:10:22.403Z,157.50
2022-09-10T10:11:22.375Z,157.50
2022-09-10T10:12:22.376Z,140.62
2022-09-10T10:13:22.358Z,123.75
2022-09-10T10:14:22.362Z,123.75
2022-09-10T10:15:22.357Z,106.88
2022-09-10T10:16:22.320Z,95.62
2022-09-10T10:17:22.319Z,84.38
2022-09-10T10:18:22.300Z,101.25
2022-09-10T10:19:22.309Z,118.12
2022-09-10T10:20:22.302Z,129.38
2022-09-10T10:21:22.297Z,123.75
2022-09-10T10:22:22.260Z,129.38
2022-09-10T10:23:22.251Z,135.00
2022-09-10T10:24:22.233Z,135.00
2022-09-10T10:25:22.258Z,146.25
2022-09-10T10:26:22.200Z,151.88
2022-09-10T10:27:22.210Z,151.88
2022-09-10T10:28:22.197Z,146.25
2022-09-10T10:29:22.204Z,106.88
2022-09-10T10:30:22.166Z,90.00
2022-09-10T10:31:22.314Z,90.00
2022-09-10T10:32:22.156Z,106.88
2022-09-10T10:33:22.174Z,118.12
2022-09-10T10:34:22.123Z,106.88
2022-09-10T10:35:22.120Z,90.00
2022-09-10T10:36:24.632Z,84.38
2022-09-10T10:37:22.103Z,95.62
2022-09-10T10:38:22.105Z,95.62
2022-09-10T10:39:22.066Z,101.25
2022-09-10T10:40:22.062Z,106.88
2022-09-10T10:41:22.065Z,106.88
2022-09-10T10:42:22.075Z,112.50
2022-09-10T10:43:22.030Z,101.25
2022-09-10T10:44:22.032Z,90.00
2022-09-10T10:45:22.028Z,90.00
2022-09-10T10:46:22.053Z,78.75
2022-09-10T10:47:22.000Z,56.25
2022-09-10T10:48:21.974Z,50.62
2022-09-10T10:49:21.967Z,50.62
2022-09-10T10:50:22.194Z,45.00
2022-09-10T10:51:21.938Z,45.00
2022-09-10T10:52:21.952Z,50.62
2022-09-10T10:53:21.943Z,50.62
2022-09-10T10:54:21.963Z,45.00
2022-09-10T10:55:21.913Z,39.38
2022-09-10T10:56:21.980Z,50.62
2022-09-10T10:57:21.899Z,56.25
2022-09-10T10:58:21.987Z,61.88
2022-09-10T10:59:21.866Z,61.88
2022-09-10T11:00:22.067Z,56.25
2022-09-10T11:01:21.881Z,56.25
2022-09-10T11:02:22.100Z,61.88
2022-09-10T11:03:21.831Z,67.50
2022-09-10T11:04:21.879Z,56.25
2022-09-10T11:05:21.814Z,61.88
2022-09-10T11:06:21.847Z,73.12
2022-09-10T11:07:21.764Z,73.12
2022-09-10T11:08:21.754Z,78.75
2022-09-10T11:09:21.868Z,78.75
2022-09-10T11:10:21.753Z,78.75
2022-09-10T11:11:21.936Z,78.75
2022-09-10T11:12:21.714Z,78.75
2022-09-10T11:13:21.885Z,73.12
2022-09-10T11:14:21.943Z,73.12
2022-09-10T11:15:21.686Z,73.12
2022-09-10T11:16:21.758Z,73.12
2022-09-10T11:17:21.665Z,73.12
2022-09-10T11:18:21.720Z,73.12
2022-09-10T11:19:21.650Z,73.12
2022-09-10T11:20:29.111Z,67.50
2022-09-10T11:21:22.808Z,67.50
2022-09-10T11:22:21.637Z,61.88
2022-09-10T11:23:21.751Z,61.88
2022-09-10T11:24:21.672Z,56.25
2022-09-10T11:25:21.764Z,50.62
2022-09-10T11:26:21.558Z,45.00
2022-09-10T11:27:21.552Z,39.38
2022-09-10T11:28:21.630Z,33.75
2022-09-10T11:29:21.522Z,33.75
2022-09-10T11:30:21.602Z,33.75
2022-09-10T11:31:21.522Z,33.75
2022-09-10T11:32:21.608Z,33.75
2022-09-10T11:33:21.516Z,33.75
2022-09-10T11:34:21.472Z,28.12
2022-09-10T11:35:21.659Z,28.12
2022-09-10T11:36:21.453Z,28.12
2022-09-10T11:37:21.645Z,28.12
2022-09-10T11:38:21.451Z,22.50
2022-09-10T11:39:21.452Z,22.50
2022-09-10T11:40:21.465Z,22.50
2022-09-10T11:41:21.407Z,16.88
2022-09-10T11:42:21.477Z,16.88
2022-09-10T11:43:21.403Z,16.88
2022-09-10T11:44:21.543Z,16.88
2022-09-10T11:45:21.364Z,16.88
2022-09-10T11:46:21.559Z,16.88
2022-09-10T11:47:21.338Z,11.25
2022-09-10T11:48:21.521Z,11.25
2022-09-10T11:49:21.308Z,11.25
2022-09-10T11:50:21.372Z,11.25
2022-09-10T11:51:21.330Z,11.25
2022-09-10T11:52:21.276Z,11.25
2022-09-10T11:53:21.315Z,11.25
2022-09-10T11:54:21.299Z,11.25
2022-09-10T11:55:21.248Z,11.25
2022-09-10T11:56:21.438Z,11.25
2022-09-10T11:57:21.221Z,5.62
2022-09-10T11:58:21.379Z,5.62
2022-09-10T11:59:21.196Z,5.62
2022-09-10T12:00:21.181Z,11.25
2022-09-10T12:01:21.177Z,11.25
2022-09-10T12:02:21.282Z,11.25
2022-09-10T12:03:22.049Z,16.88
2022-09-10T12:04:21.266Z,16.88
2022-09-10T12:05:21.982Z,11.25
2022-09-10T12:06:21.222Z,11.25
2022-09-10T12:07:22.026Z,11.25
2022-09-10T12:08:21.239Z,5.62
2022-09-10T12:09:21.982Z,5.62
2022-09-10T12:10:21.263Z,11.25
2022-09-10T12:11:21.980Z,11.25
2022-09-10T12:12:28.042Z,5.62
2022-09-10T12:13:21.512Z,5.62
2022-09-10T12:14:21.526Z,5.62
2022-09-10T12:15:28.045Z,5.62
2022-09-10T12:16:21.033Z,5.62
2022-09-10T12:17:22.004Z,5.62
2022-09-10T12:18:23.484Z,5.62
2022-09-10T12:19:27.507Z,5.62
2022-09-10T12:20:21.008Z,5.62
2022-09-10T12:21:21.482Z,5.62
2022-09-10T12:22:20.948Z,5.62
2022-09-10T12:23:23.511Z,5.62
2022-09-10T12:24:20.918Z,11.25
2022-09-10T12:25:22.512Z,11.25
2022-09-10T12:26:21.493Z,11.25
2022-09-10T12:27:21.483Z,16.88
2022-09-10T12:28:23.486Z,16.88
2022-09-10T12:29:23.501Z,16.88
2022-09-10T12:30:20.885Z,22.50
2022-09-10T12:31:23.554Z,28.12
2022-09-10T12:32:20.830Z,28.12
2022-09-10T12:33:21.505Z,28.12
2022-09-10T12:34:20.800Z,28.12
2022-09-10T12:35:27.496Z,28.12
2022-09-10T12:36:21.612Z,28.12
2022-09-10T12:37:21.016Z,22.50
2022-09-10T12:38:21.496Z,22.50
2022-09-10T12:39:21.504Z,16.88
2022-09-10T12:40:21.545Z,16.88
2022-09-10T12:41:23.480Z,11.25
2022-09-10T12:42:21.481Z,11.25
2022-09-10T12:43:21.519Z,11.25
2022-09-10T12:44:22.521Z,11.25
2022-09-10T12:45:21.493Z,11.25
2022-09-10T12:46:21.559Z,11.25
2022-09-10T12:47:21.492Z,11.25
2022-09-10T12:48:26.972Z,16.88
2022-09-10T12:49:20.650Z,16.88
2022-09-10T12:50:23.499Z,11.25
2022-09-10T12:51:20.619Z,16.88
2022-09-10T12:52:21.518Z,16.88
2022-09-10T12:53:20.594Z,22.50
2022-09-10T12:54:21.518Z,16.88
2022-09-10T12:55:20.619Z,16.88
2022-09-10T12:56:21.498Z,22.50
2022-09-10T12:57:20.559Z,22.50
2022-09-10T12:58:23.484Z,22.50
2022-09-10T12:59:20.549Z,22.50